Time;durP1;ratioP1;P1;durP2;ratioP2;P2;SDS_P1;SDS_P2;PMS_P1;PMS_P2;Temp;Humidity;BMP_temperature;BMP_pressure;BME280_temperature;BME280_humidity;BME280_pressure;Samples;Min_cycle;Max_cycle;Signal;HPM_P1;HPM_P2
2021/09/13 00:01:25;;;;;;;15.38;10.48;;;14.30;99.90;;;12.92;100.00;101504.66;2567402;30;139227;-44
2021/09/13 00:03:55;;;;;;;14.38;9.73;;;14.30;99.90;;;12.93;100.00;101497.25;2567420;30;137555;-41
2021/09/13 00:06:24;;;;;;;13.73;9.88;;;14.30;99.90;;;12.93;100.00;101498.13;2566798;30;138331;-41
2021/09/13 00:08:52;;;;;;;13.95;9.82;;;14.30;99.90;;;12.92;100.00;101492.84;2569070;30;137014;-41
2021/09/13 00:11:20;;;;;;;14.02;9.60;;;14.40;99.90;;;12.90;100.00;101492.22;2568518;30;138481;-43
2021/09/13 00:13:50;;;;;;;11.90;8.85;;;14.30;99.90;;;12.86;100.00;101493.69;2566445;30;138887;-41
2021/09/13 00:16:17;;;;;;;13.27;8.55;;;14.30;99.90;;;12.82;100.00;101492.44;2568049;30;138509;-41
2021/09/13 00:18:45;;;;;;;10.98;8.23;;;14.30;99.90;;;12.77;100.00;101495.81;2568104;30;137324;-41
2021/09/13 00:21:13;;;;;;;12.80;8.32;;;14.20;99.90;;;12.72;100.00;101488.22;2567412;30;139078;-41
2021/09/13 00:23:44;;;;;;;12.82;8.18;;;14.20;99.90;;;12.65;100.00;101487.38;2567558;30;136857;-41
2021/09/13 00:26:12;;;;;;;11.93;8.07;;;14.10;99.90;;;12.62;100.00;101488.66;2565785;30;137176;-41
2021/09/13 00:28:41;;;;;;;10.80;7.50;;;14.10;99.90;;;12.59;100.00;101486.31;2567991;30;136824;-41
2021/09/13 00:31:11;;;;;;;11.20;7.70;;;14.00;99.90;;;12.58;100.00;101486.53;2566152;30;137217;-41
2021/09/13 00:33:41;;;;;;;11.10;7.70;;;14.00;99.90;;;12.57;100.00;101485.69;2568006;30;137448;-42
2021/09/13 00:36:11;;;;;;;11.77;7.50;;;14.00;99.90;;;12.54;100.00;101488.00;2568083;30;138224;-41
2021/09/13 00:38:39;;;;;;;10.90;7.50;;;14.00;99.90;;;12.54;100.00;101490.75;2567813;30;138380;-42
2021/09/13 00:41:08;;;;;;;12.52;8.23;;;13.90;99.90;;;12.53;100.00;101492.63;2567857;30;138468;-41
2021/09/13 00:43:36;;;;;;;11.07;7.70;;;13.90;99.90;;;12.58;100.00;101486.53;2565482;30;138023;-41
2021/09/13 00:46:04;;;;;;;11.48;7.45;;;14.00;99.90;;;12.57;100.00;101490.34;2566099;30;139112;-41
2021/09/13 00:48:32;;;;;;;10.68;7.45;;;14.00;99.90;;;12.57;100.00;101490.34;2566518;30;136813;-41
2021/09/13 00:50:59;;;;;;;10.55;7.22;;;13.90;99.90;;;12.58;100.00;101489.28;2565786;30;138643;-41
2021/09/13 00:53:27;;;;;;;11.77;7.50;;;14.00;99.90;;;12.59;100.00;101489.06;2567365;30;138698;-41
2021/09/13 00:55:55;;;;;;;9.80;6.68;;;14.00;99.90;;;12.59;100.00;101496.44;2566986;30;138268;-41
2021/09/13 01:00:56;;;;;;;9.65;6.75;;;14.00;99.90;;;12.61;100.00;101494.34;2567346;30;137308;-39
2021/09/13 01:03:24;;;;;;;11.05;6.80;;;14.00;99.90;;;12.63;100.00;101497.69;2568663;30;138086;-39
2021/09/13 01:05:52;;;;;;;10.10;6.45;;;14.00;99.90;;;12.62;100.00;101488.66;2567384;30;138527;-39
2021/09/13 01:08:21;;;;;;;10.13;6.93;;;14.00;99.90;;;12.65;100.00;101490.97;2564900;30;138740;-39
2021/09/13 01:10:52;;;;;;;11.68;7.10;;;14.10;99.90;;;12.66;100.00;101489.06;2568674;30;138227;-39
2021/09/13 01:13:19;;;;;;;10.43;7.10;;;14.10;99.90;;;12.69;100.00;101487.81;2566695;30;137713;-39
2021/09/13 01:15:47;;;;;;;9.48;6.43;;;14.10;99.90;;;12.70;100.00;101481.28;2569410;30;140506;-39
2021/09/13 01:18:14;;;;;;;10.15;6.40;;;14.10;99.90;;;12.71;100.00;101483.78;2566997;30;136922;-39
2021/09/13 01:20:42;;;;;;;8.25;5.85;;;14.10;99.90;;;12.73;100.00;101478.97;2570572;30;136790;-39
2021/09/13 01:23:29;;;;;;;8.93;6.05;;;14.10;99.90;;;12.72;100.00;101477.25;2568221;30;138449;-39
2021/09/13 01:26:23;;;;;;;8.95;5.63;;;14.10;99.90;;;12.71;100.00;101480.22;2567885;30;137863;-39
2021/09/13 01:28:53;;;;;;;8.38;5.53;;;14.10;99.90;;;12.68;100.00;101476.00;2565425;30;138400;-39
2021/09/13 01:31:29;;;;;;;8.45;5.75;;;14.10;99.90;;;12.65;100.00;101477.28;2568763;30;137242;-39
2021/09/13 01:33:57;;;;;;;7.47;5.40;;;14.10;99.90;;;12.62;100.00;101465.91;2569070;30;138134;-40
2021/09/13 01:36:30;;;;;;;6.78;5.10;;;14.10;99.90;;;12.61;100.00;101466.97;2569182;30;138569;-39
2021/09/13 01:39:03;;;;;;;8.63;5.47;;;14.00;99.90;;;12.58;100.00;101481.06;2569106;30;139780;-39
2021/09/13 01:41:31;;;;;;;9.05;5.55;;;14.00;99.90;;;12.54;100.00;101474.34;2568297;30;138446;-39
2021/09/13 01:44:03;;;;;;;9.27;5.50;;;14.00;99.90;;;12.50;100.00;101480.22;2568571;30;137774;-41
2021/09/13 01:46:31;;;;;;;9.73;5.70;;;13.90;99.90;;;12.43;100.00;101462.94;2569671;30;138323;-39
2021/09/13 01:48:59;;;;;;;8.55;5.13;;;13.90;99.90;;;12.41;100.00;101470.50;2569216;30;137343;-39
2021/09/13 01:51:26;;;;;;;8.93;5.05;;;13.90;99.90;;;12.37;100.00;101466.50;2569643;30;140334;-39
2021/09/13 01:53:55;;;;;;;7.13;4.90;;;13.80;99.90;;;12.34;100.00;101476.00;2569496;30;138874;-39
2021/09/13 01:56:22;;;;;;;6.15;4.53;;;13.80;99.90;;;12.28;100.00;101470.50;2566824;30;137157;-40
2021/09/13 01:58:50;;;;;;;6.30;4.47;;;13.80;99.90;;;12.21;100.00;101468.63;2569195;30;138925;-39
2021/09/13 02:01:21;;;;;;;7.90;5.03;;;13.70;99.90;;;12.15;100.00;101477.63;2568049;30;140564;-39
2021/09/13 02:03:48;;;;;;;6.43;4.78;;;13.60;99.90;;;12.08;100.00;101474.91;2566339;30;138400;-39
2021/09/13 02:06:16;;;;;;;5.30;4.28;;;13.60;99.90;;;12.00;100.00;101479.69;2567374;30;138338;-39
2021/09/13 02:08:45;;;;;;;6.15;4.43;;;13.50;99.90;;;11.96;100.00;101476.50;2568825;30;138212;-39
2021/09/13 02:11:13;;;;;;;7.22;4.80;;;13.40;99.90;;;11.87;100.00;101464.91;2569409;30;139273;-39
2021/09/13 02:13:42;;;;;;;7.13;4.38;;;13.40;99.90;;;11.83;100.00;101474.56;2567946;30;138917;-39
2021/09/13 02:16:10;;;;;;;;;;;13.30;99.90;;;11.78;100.00;101477.09;2569316;30;138780;-39
2021/09/13 02:18:39;;;;;;;7.13;4.50;;;13.30;99.90;;;11.70;100.00;101475.38;2569412;30;138136;-39
2021/09/13 02:21:08;;;;;;;7.15;4.82;;;13.20;99.90;;;11.70;99.90;101469.06;2569234;30;140011;-39
2021/09/13 02:23:38;;;;;;;7.07;4.60;;;13.20;99.90;;;11.63;99.78;101463.56;2568033;30;138642;-39
2021/09/13 02:26:09;;;;;;;5.53;4.20;;;13.10;99.90;;;11.55;99.78;101471.97;2568728;30;138317;-39
2021/09/13 02:28:38;;;;;;;6.65;4.00;;;13.10;99.90;;;11.48;99.80;101470.00;2569601;30;137053;-40
2021/09/13 02:31:06;;;;;;;6.13;4.00;;;13.00;99.90;;;11.42;99.69;101467.25;2569966;30;139213;-39
2021/09/13 02:33:34;;;;;;;6.35;4.78;;;12.90;99.90;;;11.40;99.66;101475.66;2568573;30;137413;-39
2021/09/13 02:36:03;;;;;;;7.40;4.38;;;12.90;99.90;;;11.37;99.98;101476.88;2568646;30;139358;-39
2021/09/13 02:38:30;;;;;;;6.30;4.50;;;12.90;99.90;;;11.32;99.99;101473.09;2568878;30;138259;-39
2021/09/13 02:40:59;;;;;;;5.43;3.88;;;12.80;99.90;;;11.27;99.63;101470.09;2567514;30;138814;-39
2021/09/13 02:43:30;;;;;;;7.43;4.32;;;12.80;99.90;;;11.24;99.62;101474.09;2569959;30;139050;-39
2021/09/13 02:45:58;;;;;;;7.32;4.50;;;12.70;99.90;;;11.20;99.35;101481.00;2566864;30;139119;-39
2021/09/13 02:48:26;;;;;;;6.75;4.43;;;12.70;99.90;;;11.14;99.32;101473.59;2568869;30;139300;-39
2021/09/13 02:50:54;;;;;;;8.43;4.40;;;12.70;99.90;;;11.08;99.36;101478.81;2567539;30;138381;-39
2021/09/13 02:53:25;;;;;;;7.53;4.10;;;12.60;99.90;;;11.04;99.71;101471.25;2567538;30;138502;-39
2021/09/13 02:55:53;;;;;;;6.90;4.50;;;12.60;99.90;;;11.00;99.61;101467.19;2569796;30;139513;-39
2021/09/13 02:58:21;;;;;;;8.63;4.75;;;12.50;99.90;;;10.98;99.26;101472.03;2566673;30;137541;-39
2021/09/13 03:00:50;;;;;;;7.00;4.93;;;12.50;99.90;;;10.95;99.45;101470.56;2569377;30;140254;-39
2021/09/13 03:03:17;;;;;;;7.60;4.80;;;12.50;99.90;;;10.91;99.25;101477.47;2567562;30;138486;-39
2021/09/13 03:05:45;;;;;;;;;;;12.40;99.90;;;10.89;99.72;101476.81;2566575;30;137179;-39
2021/09/13 03:08:17;;;;;;;5.95;4.20;;;12.40;99.90;;;10.89;99.30;101477.66;2568283;30;137659;-39
2021/09/13 03:10:45;;;;;;;5.40;4.20;;;12.40;99.90;;;10.85;99.59;101475.50;2568859;30;139706;-38
2021/09/13 03:13:14;;;;;;;7.53;4.18;;;12.40;99.90;;;10.81;99.47;101466.03;2569462;30;136880;-39
2021/09/13 03:15:43;;;;;;;6.47;4.45;;;12.30;99.90;;;10.75;99.32;101478.59;2568781;30;139021;-39
2021/09/13 03:18:11;;;;;;;6.47;4.15;;;12.30;99.90;;;10.69;99.35;101465.72;2566691;30;137766;-39
2021/09/13 03:20:39;;;;;;;5.70;4.20;;;12.20;99.90;;;10.67;99.39;101467.81;2568745;30;139967;-39
2021/09/13 03:23:06;;;;;;;;;;;12.20;99.90;;;10.63;99.38;101465.47;2569313;30;138892;-39
2021/09/13 03:25:34;;;;;;;6.53;4.15;;;12.20;99.90;;;10.61;99.58;101466.72;2569920;30;138722;-39
2021/09/13 03:28:04;;;;;;;5.32;3.83;;;12.20;99.90;;;10.57;99.75;101468.13;2568329;30;137467;-39
2021/09/13 03:30:36;;;;;;;5.53;3.50;;;12.10;99.90;;;10.54;99.44;101457.63;2568840;30;140597;-39
2021/09/13 03:33:04;;;;;;;6.15;3.95;;;12.10;99.90;;;10.50;99.25;101455.28;2565979;30;136969;-39
2021/09/13 03:35:31;;;;;;;7.88;4.30;;;12.10;99.90;;;10.50;99.33;101457.19;2568099;30;138423;-39
2021/09/13 03:38:01;;;;;;;7.22;4.13;;;12.10;99.90;;;10.48;99.69;101457.38;2566382;30;137226;-39
2021/09/13 03:40:29;;;;;;;;;;;12.00;99.90;;;10.46;99.92;101445.81;2568335;30;139743;-39
2021/09/13 03:42:57;;;;;;;4.93;3.40;;;12.00;99.90;;;10.44;99.44;101444.31;2568274;30;138399;-39
2021/09/13 03:45:28;;;;;;;6.50;3.95;;;12.00;99.90;;;10.45;99.63;101451.47;2566484;30;138497;-39
2021/09/13 03:48:14;;;;;;;5.82;3.95;;;12.00;99.90;;;10.45;100.00;101451.47;2568941;30;136999;-39
2021/09/13 03:50:45;;;;;;;6.72;3.88;;;12.00;99.90;;;10.42;100.00;101454.59;2567973;30;139468;-39
2021/09/13 03:53:13;;;;;;;7.50;4.47;;;12.00;99.90;;;10.40;100.00;101457.53;2568921;30;137606;-38
2021/09/13 03:55:41;;;;;;;5.85;4.38;;;11.90;99.90;;;10.37;100.00;101455.16;2566238;30;139498;-39
2021/09/13 03:58:11;;;;;;;6.00;3.83;;;11.90;99.90;;;10.30;100.00;101460.53;2568294;30;139982;-39
2021/09/13 04:00:39;;;;;;;6.72;4.82;;;11.90;99.90;;;10.23;99.90;101448.72;2568622;30;137830;-39
2021/09/13 04:03:16;;;;;;;5.22;3.60;;;11.80;99.90;;;10.19;99.83;101452.88;2567773;30;138809;-39
2021/09/13 04:05:46;;;;;;;5.65;3.90;;;11.70;99.90;;;10.15;99.98;101446.97;2568988;30;138288;-39
2021/09/13 04:08:59;;;;;;;6.60;3.63;;;11.70;99.90;;;10.12;100.00;101458.28;2566078;30;137617;-39
2021/09/13 04:11:54;;;;;;;6.80;4.47;;;11.70;99.90;;;10.07;100.00;101442.50;2568909;30;139420;-39
2021/09/13 04:14:40;;;;;;;6.07;3.70;;;11.70;99.90;;;10.05;100.00;101457.34;2568416;30;136718;-39
2021/09/13 04:17:30;;;;;;;6.10;3.95;;;11.70;99.90;;;9.98;99.88;101457.28;2568106;30;137098;-39
2021/09/13 04:20:15;;;;;;;8.27;4.00;;;11.60;99.90;;;9.98;100.00;101467.34;2569268;30;137695;-39
2021/09/13 04:23:05;;;;;;;5.60;3.90;;;11.60;99.90;;;9.91;99.79;101465.38;2569215;30;138100;-39
2021/09/13 04:25:49;;;;;;;6.97;3.92;;;11.50;99.90;;;9.88;99.80;101476.69;2568492;30;140339;-39
2021/09/13 04:28:42;;;;;;;6.60;3.80;;;11.50;99.90;;;9.85;99.88;101474.34;2567359;30;137155;-39
2021/09/13 04:31:18;;;;;;;5.55;4.15;;;11.40;99.90;;;9.83;99.40;101478.28;2567685;30;138696;-39
2021/09/13 04:34:07;;;;;;;9.60;4.70;;;11.40;99.90;;;9.77;99.69;101474.44;2566404;30;137370;-39
2021/09/13 04:37:04;;;;;;;6.68;3.95;;;11.30;99.90;;;9.75;99.75;101477.38;2566349;30;137220;-39
2021/09/13 04:39:54;;;;;;;6.43;4.30;;;11.30;99.90;;;9.75;99.74;101471.06;2569619;30;136989;-39
2021/09/13 04:42:44;;;;;;;7.88;4.50;;;11.30;99.90;;;9.72;99.53;101479.63;2568336;30;137042;-39
2021/09/13 04:45:43;;;;;;;6.13;4.20;;;11.30;99.90;;;9.68;100.00;101476.44;2567149;30;140153;-39
2021/09/13 04:48:32;;;;;;;6.60;4.43;;;11.30;99.90;;;9.66;99.84;101480.38;2568103;30;136915;-39
2021/09/13 04:51:14;;;;;;;7.65;4.60;;;11.20;99.90;;;9.64;99.96;101483.28;2567777;30;140534;-37
2021/09/13 04:54:05;;;;;;;8.40;4.63;;;11.20;99.90;;;9.57;99.82;101471.47;2569131;30;138551;-39
2021/09/13 04:56:33;;;;;;;6.55;4.40;;;11.20;99.90;;;9.60;99.99;101477.41;2570657;30;138488;-39
2021/09/13 04:59:02;;;;;;;6.22;4.40;;;11.20;99.90;;;9.57;99.97;101475.06;2567158;30;138942;-38
2021/09/13 05:01:30;;;;;;;7.93;4.80;;;11.20;99.90;;;9.56;100.00;101478.81;2570498;30;140736;-39
2021/09/13 05:03:57;;;;;;;;;;;11.10;99.90;;;9.54;100.00;101482.75;2569090;30;139751;-39
2021/09/13 05:06:26;;;;;;;7.32;4.20;;;11.20;99.90;;;9.53;100.00;101481.88;2570088;30;139408;-39
2021/09/13 05:08:55;;;;;;;7.45;4.47;;;11.10;99.90;;;9.51;100.00;101481.22;2566988;30;137369;-39
2021/09/13 05:11:26;;;;;;;7.10;4.78;;;11.10;99.90;;;9.48;100.00;101481.63;2569335;30;138252;-39
2021/09/13 05:13:54;;;;;;;6.57;4.30;;;11.10;99.90;;;9.45;100.00;101474.69;2569190;30;138923;-38
2021/09/13 05:16:22;;;;;;;7.80;5.00;;;11.00;99.90;;;9.43;100.00;101470.44;2567953;30;140056;-38
2021/09/13 05:18:50;;;;;;;8.95;4.28;;;11.10;99.90;;;9.48;100.00;101473.44;2567356;30;137439;-39
2021/09/13 05:21:17;;;;;;;8.23;4.40;;;11.00;99.90;;;9.48;100.00;101473.44;2569234;30;140438;-38
2021/09/13 05:23:51;;;;;;;6.32;4.90;;;11.00;99.90;;;9.48;100.00;101484.34;2569879;30;139618;-39
2021/09/13 05:26:18;;;;;;;10.10;4.82;;;11.00;99.90;;;9.49;100.00;101486.88;2572362;30;139123;-39
2021/09/13 05:28:46;;;;;;;7.15;4.50;;;11.10;99.90;;;9.43;100.00;101476.75;2570673;30;137500;-39
2021/09/13 05:31:17;;;;;;;;;;;11.10;99.90;;;9.50;100.00;101483.13;2570127;30;138681;-39
2021/09/13 05:33:44;;;;;;;7.57;4.10;;;11.10;99.90;;;9.53;100.00;101492.78;2565657;30;139601;-39
2021/09/13 05:36:12;;;;;;;6.95;4.75;;;11.10;99.90;;;9.55;100.00;101489.88;2569602;30;139676;-39
2021/09/13 05:38:39;;;;;;;8.07;4.93;;;11.10;99.90;;;9.57;100.00;101496.84;2569616;30;137492;-39
2021/09/13 05:41:45;;;;;;;8.65;5.07;;;11.10;99.90;;;9.61;100.00;101494.56;2567658;30;137209;-39
2021/09/13 05:44:16;;;;;;;7.85;4.95;;;11.20;99.90;;;9.68;100.00;101492.78;2568647;30;138614;-39
2021/09/13 05:46:44;;;;;;;7.82;4.88;;;11.20;99.90;;;9.74;100.00;101497.47;2570328;30;140906;-39
2021/09/13 05:49:12;;;;;;;7.93;5.15;;;11.20;99.90;;;9.79;100.00;101505.91;2569652;30;138387;-39
2021/09/13 05:51:50;;;;;;;7.78;5.18;;;11.30;99.90;;;9.73;100.00;101492.19;2569481;30;140810;-39
2021/09/13 05:54:27;;;;;;;7.40;5.00;;;11.30;99.90;;;9.90;100.00;101507.31;2568337;30;137876;-38
2021/09/13 05:56:56;;;;;;;9.75;5.22;;;11.40;99.90;;;9.94;100.00;101505.03;2570352;30;140733;-39
2021/09/13 05:59:25;;;;;;;7.20;4.95;;;11.40;99.90;;;10.03;100.00;101511.22;2568454;30;137397;-39
2021/09/13 06:02:00;;;;;;;6.80;4.57;;;11.50;99.90;;;10.08;100.00;101506.88;2568149;30;138191;-39
2021/09/13 06:04:30;;;;;;;;;;;11.60;99.90;;;10.17;100.00;101514.94;2570191;30;137418;-39
2021/09/13 06:06:59;;;;;;;7.63;4.50;;;11.60;99.90;;;10.28;100.00;101524.50;2568180;30;138286;-39
2021/09/13 06:09:28;;;;;;;8.50;5.43;;;11.70;99.90;;;10.35;100.00;101518.06;2568640;30;139053;-39
2021/09/13 06:11:57;;;;;;;8.00;5.05;;;11.80;99.90;;;10.46;100.00;101522.19;2569520;30;138362;-39
2021/09/13 06:14:29;;;;;;;8.23;5.00;;;11.90;99.90;;;10.54;100.00;101523.09;2568472;30;136873;-39
2021/09/13 06:16:58;;;;;;;8.57;5.45;;;11.90;99.90;;;10.64;100.00;101520.91;2569620;30;139523;-39
2021/09/13 06:19:26;;;;;;;7.75;5.47;;;12.00;99.90;;;10.71;100.00;101521.81;2567626;30;140145;-39
2021/09/13 06:21:54;;;;;;;9.77;5.93;;;12.10;99.90;;;10.81;100.00;101534.25;2568507;30;140757;-39
2021/09/13 06:24:25;;;;;;;8.50;5.65;;;12.20;99.90;;;10.88;100.00;101527.81;2568342;30;139607;-39
2021/09/13 06:26:53;;;;;;;10.88;7.28;;;12.20;99.90;;;10.99;100.00;101528.31;2566465;30;139713;-39
2021/09/13 06:29:20;;;;;;;10.55;6.72;;;12.30;99.90;;;11.08;100.00;101522.50;2569124;30;137381;-39
2021/09/13 06:31:49;;;;;;;12.23;6.72;;;12.40;99.90;;;11.22;100.00;101533.53;2568962;30;137477;-39
2021/09/13 06:34:18;;;;;;;11.70;7.30;;;12.50;99.90;;;11.36;100.00;101531.75;2569821;30;136954;-37
2021/09/13 06:36:49;;;;;;;12.60;8.50;;;12.60;99.90;;;11.55;100.00;101535.63;2568701;30;140543;-39
2021/09/13 06:39:17;;;;;;;13.88;9.02;;;12.80;99.90;;;11.70;100.00;101534.66;2569106;30;137075;-39
2021/09/13 06:41:44;;;;;;;18.33;10.77;;;12.90;99.90;;;11.89;100.00;101536.63;2568278;30;139824;-39
2021/09/13 06:44:23;;;;;;;16.85;10.27;;;13.10;99.90;;;12.12;100.00;101537.41;2568581;30;140136;-38
2021/09/13 06:47:04;;;;;;;15.88;9.75;;;13.30;99.90;;;12.25;100.00;101542.06;2569726;30;138043;-39
2021/09/13 06:49:33;;;;;;;14.48;9.77;;;13.40;99.90;;;12.42;100.00;101537.03;2569420;30;137191;-39
2021/09/13 06:52:04;;;;;;;17.83;10.77;;;13.60;99.90;;;12.56;100.00;101536.00;2567789;30;138032;-39
2021/09/13 06:54:32;;;;;;;18.92;11.35;;;13.70;99.90;;;12.68;100.00;101530.75;2568152;30;138358;-39
2021/09/13 06:57:01;;;;;;;20.38;12.40;;;13.90;99.90;;;12.83;100.00;101535.19;2569979;30;138906;-39
2021/09/13 06:59:29;;;;;;;20.75;12.27;;;14.00;99.90;;;12.95;100.00;101531.63;2581444;30;137944;-41
2021/09/13 07:01:56;;;;;;;18.60;12.55;;;14.10;99.90;;;13.08;100.00;101535.38;2567171;30;137964;-41
2021/09/13 07:04:25;;;;;;;18.77;12.02;;;14.20;99.90;;;13.21;100.00;101535.38;2568488;30;136860;-41
2021/09/13 07:06:52;;;;;;;18.50;11.52;;;14.30;99.90;;;13.33;100.00;101532.84;2567694;30;138417;-41
2021/09/13 07:09:20;;;;;;;15.13;10.73;;;14.50;99.90;;;13.26;100.00;101515.59;2565679;30;138381;-41
2021/09/13 07:11:48;;;;;;;16.58;11.43;;;14.50;99.90;;;13.47;100.00;101539.16;2567844;30;138338;-41
2021/09/13 07:14:18;;;;;;;17.80;11.38;;;14.60;99.90;;;13.62;100.00;101547.16;2567611;30;138446;-39
2021/09/13 07:16:46;;;;;;;16.60;11.02;;;14.70;99.90;;;13.74;100.00;101549.19;2568379;30;138881;-40
2021/09/13 07:19:14;;;;;;;18.45;12.00;;;14.80;99.90;;;13.84;100.00;101548.75;2568256;30;136960;-41
2021/09/13 07:21:41;;;;;;;19.13;11.40;;;14.90;99.90;;;14.00;100.00;101550.16;2567070;30;137926;-41
2021/09/13 07:24:11;;;;;;;16.88;11.32;;;15.10;99.90;;;14.17;99.92;101542.25;2568846;30;137121;-42
2021/09/13 07:26:39;;;;;;;17.02;11.23;;;15.20;99.90;;;14.30;98.90;101544.09;2567680;30;137373;-41
2021/09/13 07:29:08;;;;;;;17.85;10.85;;;15.30;99.90;;;14.41;97.58;101548.91;2566017;30;137841;-41
2021/09/13 07:31:35;;;;;;;23.05;11.02;;;15.40;99.90;;;14.54;97.12;101545.22;2567841;30;137927;-41
2021/09/13 07:34:04;;;;;;;16.50;10.00;;;15.60;99.90;;;14.61;96.02;101547.94;2566966;30;137478;-41
2021/09/13 07:36:35;;;;;;;13.80;8.73;;;15.60;99.90;;;14.67;95.01;101545.13;2567437;30;137826;-41
2021/09/13 07:39:04;;;;;;;14.70;8.60;;;15.70;99.90;;;14.71;94.65;101541.97;2568908;30;137524;-42
2021/09/13 07:41:31;;;;;;;12.25;8.93;;;15.80;99.90;;;14.71;93.71;101545.56;2567123;30;138529;-42
2021/09/13 07:43:59;;;;;;;14.18;8.88;;;15.90;99.90;;;14.77;94.62;101546.59;2567419;30;138342;-41
2021/09/13 07:46:27;;;;;;;12.45;9.00;;;15.90;99.90;;;14.84;93.94;101536.38;2568784;30;137269;-42
2021/09/13 07:48:55;;;;;;;12.75;7.57;;;15.90;99.90;;;14.93;93.29;101540.50;2567375;30;137028;-39
2021/09/13 07:51:23;;;;;;;10.95;7.45;;;16.00;99.90;;;15.06;93.04;101533.25;2567514;30;138452;-41
2021/09/13 07:53:50;;;;;;;11.60;7.22;;;16.10;99.90;;;15.11;91.41;101536.16;2566987;30;138458;-41
2021/09/13 07:56:18;;;;;;;12.65;6.93;;;16.20;99.90;;;15.08;90.42;101545.66;2568090;30;138455;-41
2021/09/13 07:58:46;;;;;;;10.10;7.00;;;16.20;99.90;;;15.14;90.73;101546.69;2568133;30;137439;-41
2021/09/13 08:01:13;;;;;;;10.55;6.43;;;16.20;99.90;;;15.23;91.07;101555.47;2566335;30;138436;-40
2021/09/13 08:03:41;;;;;;;;;;;16.30;99.90;;;15.34;90.89;101546.47;2567108;30;137521;-41
2021/09/13 08:06:09;;;;;;;12.38;8.13;;;16.40;99.90;;;15.45;90.15;101553.13;2567029;30;137127;-41
2021/09/13 08:08:36;;;;;;;12.05;8.15;;;16.50;99.90;;;15.50;91.19;101550.53;2565239;30;137769;-41
2021/09/13 08:11:06;;;;;;;13.15;7.70;;;16.50;99.90;;;15.67;91.19;101547.19;2566974;30;137062;-41
2021/09/13 08:13:39;;;;;;;16.58;9.10;;;16.70;99.90;;;15.75;88.47;101548.81;2569087;30;136788;-41
2021/09/13 08:16:08;;;;;;;14.57;8.70;;;16.70;99.90;;;15.88;88.32;101550.56;2565906;30;137479;-41
2021/09/13 08:18:41;;;;;;;17.05;9.38;;;16.90;99.90;;;15.97;87.80;101546.44;2567363;30;137274;-41
2021/09/13 08:21:13;;;;;;;13.60;8.82;;;17.00;99.90;;;16.04;84.92;101554.63;2566981;30;138541;-44
2021/09/13 08:23:41;;;;;;;17.50;9.93;;;17.10;99.90;;;16.09;85.43;101558.38;2568606;30;137247;-41
2021/09/13 08:26:09;;;;;;;17.38;9.82;;;17.20;99.90;;;16.18;85.12;101561.66;2568414;30;137237;-41
2021/09/13 08:28:38;;;;;;;18.65;10.23;;;17.20;99.90;;;16.32;84.87;101576.06;2568771;30;137476;-42
2021/09/13 08:31:07;;;;;;;16.40;9.75;;;17.30;99.90;;;16.36;83.68;101576.44;2568588;30;137336;-42
2021/09/13 08:33:35;;;;;;;19.85;10.38;;;17.40;99.90;;;16.48;82.98;101582.84;2566836;30;136668;-41
2021/09/13 08:36:05;;;;;;;16.05;10.00;;;17.40;99.90;;;16.54;80.95;101576.38;2568565;30;137533;-43
2021/09/13 08:38:33;;;;;;;15.35;9.80;;;17.50;99.90;;;16.69;82.09;101583.34;2568340;30;137648;-41
2021/09/13 08:41:02;;;;;;;18.70;10.35;;;17.70;99.90;;;16.80;81.65;101581.72;2569405;30;137108;-41
2021/09/13 08:43:30;;;;;;;16.38;10.27;;;17.70;99.90;;;16.87;81.32;101596.25;2568508;30;137397;-43
2021/09/13 08:53:41;;;;;;;13.65;8.88;;;18.00;99.90;;;17.13;78.28;101605.19;2568635;30;138232;-41
2021/09/13 08:56:14;;;;;;;16.23;9.38;;;18.00;99.90;;;17.24;77.39;101600.78;2569190;30;137323;-41
2021/09/13 08:58:45;;;;;;;17.42;10.15;;;18.20;99.90;;;17.33;75.90;101593.81;2567558;30;137305;-41
2021/09/13 09:01:13;;;;;;;15.27;9.73;;;18.30;99.90;;;17.43;76.30;101590.47;2566832;30;138536;-41
2021/09/13 09:03:45;;;;;;;16.90;9.80;;;18.40;99.90;;;17.53;76.82;101598.13;2567906;30;137145;-41
2021/09/13 09:06:41;;;;;;;19.08;10.55;;;18.40;99.90;;;17.68;77.92;101601.22;2567649;30;137441;-42
2021/09/13 09:09:28;;;;;;;18.10;10.73;;;18.50;99.90;;;17.87;77.24;101603.00;2568331;30;136726;-43
2021/09/13 09:12:08;;;;;;;16.52;9.93;;;18.60;99.90;;;18.00;75.70;101608.25;2568547;30;138304;-41
2021/09/13 09:14:48;;;;;;;18.40;9.88;;;18.80;99.90;;;18.13;75.61;101607.19;2567746;30;136984;-41
2021/09/13 09:17:26;;;;;;;19.20;10.73;;;18.90;99.90;;;18.30;74.78;101609.16;2568450;30;138266;-39
2021/09/13 09:20:11;;;;;;;17.50;9.75;;;19.00;99.90;;;18.38;73.80;101606.03;2568563;30;136861;-41
2021/09/13 09:22:40;;;;;;;16.90;9.63;;;19.10;99.90;;;18.45;73.03;101611.41;2565735;30;138564;-41
2021/09/13 09:25:23;;;;;;;16.88;10.27;;;19.30;99.90;;;18.57;71.57;101608.59;2569189;30;136852;-41
2021/09/13 09:27:57;;;;;;;18.23;10.20;;;19.40;99.90;;;18.70;71.99;101608.28;2567234;30;139018;-41
2021/09/13 09:30:45;;;;;;;15.80;9.20;;;19.50;99.90;;;18.99;73.44;101611.00;2566773;30;136947;-38
2021/09/13 09:33:19;;;;;;;18.65;9.35;;;19.70;99.90;;;19.10;69.92;101607.34;2566151;30;139194;-41
2021/09/13 09:35:54;;;;;;;15.70;8.52;;;19.80;99.90;;;19.26;68.98;101604.81;2567058;30;137790;-42
2021/09/13 09:38:43;;;;;;;11.73;6.93;;;19.90;99.90;;;19.30;65.01;101597.69;2568048;30;138128;-41
2021/09/13 09:41:13;;;;;;;13.32;6.93;;;20.10;99.90;;;19.34;66.43;101587.78;2567577;30;136713;-41
2021/09/13 09:44:01;;;;;;;13.57;6.72;;;20.10;99.90;;;19.26;61.91;101589.06;2567228;30;137426;-42
2021/09/13 09:46:41;;;;;;;9.90;5.30;;;20.10;99.90;;;19.25;61.29;101592.94;2568126;30;137276;-40
2021/09/13 09:49:15;;;;;;;10.77;6.45;;;20.10;99.90;;;19.27;64.47;101581.59;2567968;30;138658;-41
2021/09/13 09:51:53;;;;;;;10.05;6.22;;;20.10;99.90;;;19.35;65.48;101583.09;2567425;30;137441;-39
2021/09/13 09:54:28;;;;;;;11.20;6.27;;;20.10;99.90;;;19.47;66.09;101572.75;2567216;30;137080;-38
2021/09/13 09:57:07;;;;;;;10.82;6.20;;;20.20;99.90;;;19.43;63.07;101579.06;2569460;30;138510;-39
2021/09/13 09:59:37;;;;;;;11.40;6.93;;;20.30;99.90;;;19.50;64.78;101575.03;2565428;30;138113;-41
2021/09/13 10:02:41;;;;;;;11.27;6.45;;;20.30;99.90;;;19.71;64.96;101561.47;2567750;30;137016;-42
2021/09/13 10:05:09;;;;;;;10.13;5.97;;;20.50;99.90;;;19.80;64.30;101561.84;2568950;30;138412;-41
2021/09/13 10:07:41;;;;;;;9.20;5.65;;;20.50;99.90;;;19.92;64.59;101562.63;2568627;30;136656;-41
2021/09/13 10:10:09;;;;;;;8.60;5.22;;;20.60;99.90;;;20.02;63.37;101558.28;2568313;30;140573;-41
2021/09/13 10:12:38;;;;;;;9.25;4.80;;;20.70;99.90;;;20.15;63.87;101562.59;2567407;30;136844;-38
2021/09/13 10:15:08;;;;;;;8.57;4.88;;;20.80;99.90;;;20.21;61.73;101562.41;2567275;30;137766;-38
2021/09/13 10:17:36;;;;;;;9.27;5.60;;;20.90;99.90;;;20.33;65.91;101562.25;2567362;30;137679;-39
2021/09/13 10:20:05;;;;;;;;;;;21.00;99.90;;;20.31;64.14;101560.81;2568245;30;137732;-39
2021/09/13 10:22:40;;;;;;;8.40;4.40;;;21.10;99.90;;;20.28;59.26;101567.72;2567178;30;138056;-38
2021/09/13 10:25:10;;;;;;;9.45;5.85;;;21.10;99.90;;;20.24;61.83;101566.56;2567225;30;136796;-39
2021/09/13 10:27:47;;;;;;;7.57;4.55;;;21.10;99.90;;;20.27;60.77;101566.88;2566905;30;136917;-38
2021/09/13 10:30:20;;;;;;;9.40;5.50;;;21.10;99.90;;;20.21;57.29;101556.84;2569090;30;138294;-40
2021/09/13 10:32:51;;;;;;;9.05;4.32;;;21.10;99.90;;;20.27;60.52;101566.03;2568199;30;137045;-41